sensor_id;sensor_type;location;lat;lon;timestamp;P1;durP1;ratioP1;P2;durP2;ratioP2
45488;SDS011;31236;55.026;61.042;2022-09-16T00:01:54;7.20;;;1.32;;
45488;SDS011;31236;55.026;61.042;2022-09-16T00:04:25;27.48;;;2.27;;
45488;SDS011;31236;55.026;61.042;2022-09-16T00:06:55;6.08;;;1.17;;
45488;SDS011;31236;55.026;61.042;2022-09-16T00:09:26;3.90;;;1.10;;
45488;SDS011;31236;55.026;61.042;2022-09-16T00:11:57;9.38;;;1.60;;
45488;SDS011;31236;55.026;61.042;2022-09-16T00:14:27;7.53;;;1.30;;
45488;SDS011;31236;55.026;61.042;2022-09-16T00:16:57;3.60;;;1.10;;
45488;SDS011;31236;55.026;61.042;2022-09-16T00:19:28;5.47;;;1.00;;
45488;SDS011;31236;55.026;61.042;2022-09-16T00:21:58;3.65;;;1.10;;
45488;SDS011;31236;55.026;61.042;2022-09-16T00:24:29;9.83;;;1.40;;
45488;SDS011;31236;55.026;61.042;2022-09-16T00:26:59;7.00;;;1.25;;
45488;SDS011;31236;55.026;61.042;2022-09-16T00:29:30;8.10;;;0.95;;
45488;SDS011;31236;55.026;61.042;2022-09-16T00:32:00;6.17;;;1.42;;
45488;SDS011;31236;55.026;61.042;2022-09-16T00:34:31;7.65;;;1.80;;
45488;SDS011;31236;55.026;61.042;2022-09-16T00:37:01;3.50;;;1.15;;
45488;SDS011;31236;55.026;61.042;2022-09-16T00:39:51;2.98;;;1.02;;
45488;SDS011;31236;55.026;61.042;2022-09-16T00:42:22;6.05;;;1.00;;
45488;SDS011;31236;55.026;61.042;2022-09-16T00:47:45;3.52;;;1.10;;
45488;SDS011;31236;55.026;61.042;2022-09-16T00:53:08;3.08;;;1.02;;
45488;SDS011;31236;55.026;61.042;2022-09-16T00:55:42;4.72;;;1.45;;
45488;SDS011;31236;55.026;61.042;2022-09-16T00:58:15;5.97;;;1.10;;
45488;SDS011;31236;55.026;61.042;2022-09-16T01:01:04;6.10;;;1.45;;
45488;SDS011;31236;55.026;61.042;2022-09-16T01:03:37;6.87;;;1.40;;
45488;SDS011;31236;55.026;61.042;2022-09-16T01:06:08;13.72;;;2.75;;
45488;SDS011;31236;55.026;61.042;2022-09-16T01:08:41;9.98;;;1.35;;
45488;SDS011;31236;55.026;61.042;2022-09-16T01:11:13;10.00;;;1.62;;
45488;SDS011;31236;55.026;61.042;2022-09-16T01:13:43;6.42;;;1.00;;
45488;SDS011;31236;55.026;61.042;2022-09-16T01:16:18;6.35;;;1.40;;
45488;SDS011;31236;55.026;61.042;2022-09-16T01:31:24;5.58;;;1.37;;
45488;SDS011;31236;55.026;61.042;2022-09-16T01:48:54;8.25;;;1.90;;
45488;SDS011;31236;55.026;61.042;2022-09-16T01:51:47;6.55;;;1.47;;
45488;SDS011;31236;55.026;61.042;2022-09-16T01:57:28;2.85;;;1.02;;
45488;SDS011;31236;55.026;61.042;2022-09-16T02:08:30;7.92;;;1.98;;
45488;SDS011;31236;55.026;61.042;2022-09-16T02:11:01;4.95;;;0.98;;
45488;SDS011;31236;55.026;61.042;2022-09-16T02:25:17;3.98;;;1.05;;
45488;SDS011;31236;55.026;61.042;2022-09-16T02:27:50;9.15;;;1.20;;
45488;SDS011;31236;55.026;61.042;2022-09-16T02:30:22;4.47;;;1.02;;
45488;SDS011;31236;55.026;61.042;2022-09-16T02:35:43;5.33;;;0.98;;
45488;SDS011;31236;55.026;61.042;2022-09-16T02:41:27;5.67;;;1.02;;
45488;SDS011;31236;55.026;61.042;2022-09-16T02:43:58;5.37;;;1.12;;
45488;SDS011;31236;55.026;61.042;2022-09-16T02:58:13;3.72;;;1.00;;
45488;SDS011;31236;55.026;61.042;2022-09-16T03:00:46;6.40;;;1.10;;
45488;SDS011;31236;55.026;61.042;2022-09-16T03:03:16;8.45;;;1.75;;
45488;SDS011;31236;55.026;61.042;2022-09-16T03:08:39;5.70;;;1.40;;
45488;SDS011;31236;55.026;61.042;2022-09-16T03:29:48;10.10;;;1.70;;
45488;SDS011;31236;55.026;61.042;2022-09-16T03:35:30;4.72;;;1.40;;
45488;SDS011;31236;55.026;61.042;2022-09-16T03:38:21;9.33;;;1.65;;
45488;SDS011;31236;55.026;61.042;2022-09-16T03:40:52;10.03;;;1.77;;
45488;SDS011;31236;55.026;61.042;2022-09-16T03:43:23;4.90;;;1.42;;
45488;SDS011;31236;55.026;61.042;2022-09-16T03:45:53;8.28;;;1.70;;
45488;SDS011;31236;55.026;61.042;2022-09-16T03:48:24;7.20;;;1.50;;
45488;SDS011;31236;55.026;61.042;2022-09-16T03:50:54;6.12;;;1.52;;
45488;SDS011;31236;55.026;61.042;2022-09-16T03:53:25;8.93;;;2.12;;
45488;SDS011;31236;55.026;61.042;2022-09-16T03:55:56;5.50;;;1.40;;
45488;SDS011;31236;55.026;61.042;2022-09-16T03:58:27;4.03;;;1.17;;
45488;SDS011;31236;55.026;61.042;2022-09-16T04:00:57;6.00;;;1.20;;
45488;SDS011;31236;55.026;61.042;2022-09-16T04:03:28;8.78;;;1.35;;
45488;SDS011;31236;55.026;61.042;2022-09-16T04:05:58;7.33;;;0.88;;
45488;SDS011;31236;55.026;61.042;2022-09-16T04:08:29;4.90;;;1.10;;
45488;SDS011;31236;55.026;61.042;2022-09-16T04:11:01;6.47;;;1.35;;
45488;SDS011;31236;55.026;61.042;2022-09-16T04:13:33;7.15;;;1.67;;
45488;SDS011;31236;55.026;61.042;2022-09-16T04:16:03;10.13;;;1.60;;
45488;SDS011;31236;55.026;61.042;2022-09-16T04:18:34;9.40;;;2.05;;
45488;SDS011;31236;55.026;61.042;2022-09-16T04:21:05;7.10;;;1.52;;
45488;SDS011;31236;55.026;61.042;2022-09-16T04:23:35;7.22;;;1.70;;
45488;SDS011;31236;55.026;61.042;2022-09-16T04:26:06;8.03;;;1.47;;
45488;SDS011;31236;55.026;61.042;2022-09-16T04:28:36;6.85;;;1.40;;
45488;SDS011;31236;55.026;61.042;2022-09-16T04:31:08;6.47;;;1.20;;
45488;SDS011;31236;55.026;61.042;2022-09-16T04:33:59;9.28;;;1.30;;
45488;SDS011;31236;55.026;61.042;2022-09-16T04:36:30;87.20;;;53.73;;
45488;SDS011;31236;55.026;61.042;2022-09-16T04:39:00;343.93;;;178.87;;
45488;SDS011;31236;55.026;61.042;2022-09-16T04:41:31;204.53;;;103.87;;
45488;SDS011;31236;55.026;61.042;2022-09-16T04:44:02;146.90;;;80.35;;
45488;SDS011;31236;55.026;61.042;2022-09-16T04:46:33;279.82;;;136.25;;
45488;SDS011;31236;55.026;61.042;2022-09-16T04:49:03;95.28;;;49.70;;
45488;SDS011;31236;55.026;61.042;2022-09-16T04:51:33;54.03;;;28.17;;
45488;SDS011;31236;55.026;61.042;2022-09-16T04:54:04;47.55;;;25.25;;
45488;SDS011;31236;55.026;61.042;2022-09-16T04:56:35;23.27;;;10.50;;
45488;SDS011;31236;55.026;61.042;2022-09-16T04:59:05;14.28;;;4.58;;
45488;SDS011;31236;55.026;61.042;2022-09-16T05:01:36;12.35;;;4.28;;
45488;SDS011;31236;55.026;61.042;2022-09-16T05:04:09;20.35;;;4.33;;
45488;SDS011;31236;55.026;61.042;2022-09-16T05:06:39;12.90;;;2.67;;
45488;SDS011;31236;55.026;61.042;2022-09-16T05:09:10;11.15;;;2.87;;
45488;SDS011;31236;55.026;61.042;2022-09-16T05:11:41;13.28;;;2.58;;
45488;SDS011;31236;55.026;61.042;2022-09-16T05:14:12;10.00;;;3.42;;
45488;SDS011;31236;55.026;61.042;2022-09-16T05:16:44;17.77;;;7.35;;
45488;SDS011;31236;55.026;61.042;2022-09-16T05:19:14;8.33;;;2.67;;
45488;SDS011;31236;55.026;61.042;2022-09-16T05:21:45;10.10;;;2.30;;
45488;SDS011;31236;55.026;61.042;2022-09-16T05:24:16;9.98;;;2.65;;
45488;SDS011;31236;55.026;61.042;2022-09-16T05:26:46;11.63;;;4.75;;
45488;SDS011;31236;55.026;61.042;2022-09-16T05:29:17;18.70;;;7.42;;
45488;SDS011;31236;55.026;61.042;2022-09-16T05:31:47;10.50;;;3.17;;
45488;SDS011;31236;55.026;61.042;2022-09-16T05:34:18;9.03;;;3.05;;
45488;SDS011;31236;55.026;61.042;2022-09-16T05:36:51;10.38;;;3.62;;
45488;SDS011;31236;55.026;61.042;2022-09-16T05:39:21;6.12;;;1.55;;
45488;SDS011;31236;55.026;61.042;2022-09-16T05:41:54;27.65;;;11.30;;
45488;SDS011;31236;55.026;61.042;2022-09-16T05:44:25;13.45;;;3.33;;
45488;SDS011;31236;55.026;61.042;2022-09-16T05:46:56;11.65;;;2.60;;
45488;SDS011;31236;55.026;61.042;2022-09-16T05:49:27;17.17;;;6.10;;
45488;SDS011;31236;55.026;61.042;2022-09-16T05:51:57;16.97;;;6.15;;
45488;SDS011;31236;55.026;61.042;2022-09-16T05:54:28;14.30;;;5.00;;
45488;SDS011;31236;55.026;61.042;2022-09-16T05:56:58;14.10;;;3.50;;
45488;SDS011;31236;55.026;61.042;2022-09-16T05:59:30;19.10;;;3.37;;
45488;SDS011;31236;55.026;61.042;2022-09-16T06:02:00;7.85;;;2.02;;
45488;SDS011;31236;55.026;61.042;2022-09-16T06:04:31;6.10;;;1.40;;
45488;SDS011;31236;55.026;61.042;2022-09-16T06:07:01;5.30;;;1.35;;
45488;SDS011;31236;55.026;61.042;2022-09-16T06:09:32;5.08;;;1.20;;
45488;SDS011;31236;55.026;61.042;2022-09-16T06:12:03;6.33;;;1.32;;
45488;SDS011;31236;55.026;61.042;2022-09-16T06:14:33;8.28;;;1.40;;
45488;SDS011;31236;55.026;61.042;2022-09-16T06:17:04;10.35;;;2.65;;
45488;SDS011;31236;55.026;61.042;2022-09-16T06:19:35;6.28;;;1.70;;
45488;SDS011;31236;55.026;61.042;2022-09-16T06:22:05;8.08;;;1.55;;
45488;SDS011;31236;55.026;61.042;2022-09-16T06:24:35;12.20;;;2.08;;
45488;SDS011;31236;55.026;61.042;2022-09-16T06:27:06;10.60;;;1.15;;
45488;SDS011;31236;55.026;61.042;2022-09-16T06:29:37;5.22;;;1.10;;
45488;SDS011;31236;55.026;61.042;2022-09-16T06:32:07;6.40;;;0.90;;
45488;SDS011;31236;55.026;61.042;2022-09-16T06:34:38;8.65;;;2.15;;
45488;SDS011;31236;55.026;61.042;2022-09-16T06:37:08;6.40;;;1.15;;
45488;SDS011;31236;55.026;61.042;2022-09-16T06:39:40;7.13;;;1.13;;
45488;SDS011;31236;55.026;61.042;2022-09-16T06:42:10;8.80;;;2.75;;
45488;SDS011;31236;55.026;61.042;2022-09-16T06:44:41;12.95;;;3.12;;
45488;SDS011;31236;55.026;61.042;2022-09-16T06:47:12;5.62;;;1.90;;
45488;SDS011;31236;55.026;61.042;2022-09-16T06:49:43;9.48;;;2.08;;
45488;SDS011;31236;55.026;61.042;2022-09-16T06:52:13;10.30;;;3.25;;
45488;SDS011;31236;55.026;61.042;2022-09-16T06:54:44;10.43;;;2.50;;
45488;SDS011;31236;55.026;61.042;2022-09-16T06:57:16;13.98;;;2.22;;
45488;SDS011;31236;55.026;61.042;2022-09-16T07:02:38;9.38;;;1.98;;
45488;SDS011;31236;55.026;61.042;2022-09-16T07:05:09;8.38;;;2.00;;
45488;SDS011;31236;55.026;61.042;2022-09-16T07:07:40;8.60;;;1.77;;
45488;SDS011;31236;55.026;61.042;2022-09-16T07:10:10;10.30;;;2.12;;
45488;SDS011;31236;55.026;61.042;2022-09-16T07:12:40;10.20;;;2.25;;
45488;SDS011;31236;55.026;61.042;2022-09-16T07:15:12;6.20;;;1.50;;
45488;SDS011;31236;55.026;61.042;2022-09-16T07:17:42;10.50;;;1.62;;
45488;SDS011;31236;55.026;61.042;2022-09-16T07:20:12;8.28;;;2.25;;
45488;SDS011;31236;55.026;61.042;2022-09-16T07:22:43;8.23;;;2.00;;
45488;SDS011;31236;55.026;61.042;2022-09-16T07:25:15;3.15;;;1.47;;
45488;SDS011;31236;55.026;61.042;2022-09-16T07:27:45;4.62;;;1.12;;
45488;SDS011;31236;55.026;61.042;2022-09-16T07:30:16;9.23;;;1.52;;
45488;SDS011;31236;55.026;61.042;2022-09-16T07:32:46;11.15;;;1.82;;
45488;SDS011;31236;55.026;61.042;2022-09-16T07:35:17;6.37;;;1.40;;
45488;SDS011;31236;55.026;61.042;2022-09-16T07:37:47;16.12;;;2.85;;
45488;SDS011;31236;55.026;61.042;2022-09-16T07:40:17;5.72;;;2.00;;
45488;SDS011;31236;55.026;61.042;2022-09-16T07:42:47;8.25;;;2.15;;
45488;SDS011;31236;55.026;61.042;2022-09-16T07:45:18;9.08;;;2.22;;
45488;SDS011;31236;55.026;61.042;2022-09-16T07:47:48;11.05;;;2.30;;
45488;SDS011;31236;55.026;61.042;2022-09-16T07:50:19;7.70;;;2.10;;
45488;SDS011;31236;55.026;61.042;2022-09-16T07:55:39;15.43;;;2.55;;
45488;SDS011;31236;55.026;61.042;2022-09-16T07:58:10;12.53;;;2.85;;
45488;SDS011;31236;55.026;61.042;2022-09-16T08:00:42;7.90;;;1.57;;
45488;SDS011;31236;55.026;61.042;2022-09-16T08:03:12;15.47;;;3.10;;
45488;SDS011;31236;55.026;61.042;2022-09-16T08:05:43;17.45;;;3.58;;
45488;SDS011;31236;55.026;61.042;2022-09-16T08:08:14;8.43;;;1.52;;
45488;SDS011;31236;55.026;61.042;2022-09-16T08:10:51;12.35;;;1.57;;
45488;SDS011;31236;55.026;61.042;2022-09-16T08:13:17;9.10;;;1.27;;
45488;SDS011;31236;55.026;61.042;2022-09-16T08:15:47;8.33;;;1.75;;
45488;SDS011;31236;55.026;61.042;2022-09-16T08:18:18;11.75;;;1.60;;
45488;SDS011;31236;55.026;61.042;2022-09-16T08:20:49;12.15;;;2.15;;
45488;SDS011;31236;55.026;61.042;2022-09-16T08:23:20;8.20;;;1.50;;
45488;SDS011;31236;55.026;61.042;2022-09-16T08:28:42;7.87;;;1.50;;
45488;SDS011;31236;55.026;61.042;2022-09-16T08:31:14;5.15;;;1.52;;
45488;SDS011;31236;55.026;61.042;2022-09-16T08:33:45;11.90;;;1.77;;
45488;SDS011;31236;55.026;61.042;2022-09-16T08:36:17;5.75;;;1.50;;
45488;SDS011;31236;55.026;61.042;2022-09-16T08:38:49;14.73;;;2.05;;
45488;SDS011;31236;55.026;61.042;2022-09-16T08:50:15;3.22;;;1.05;;
45488;SDS011;31236;55.026;61.042;2022-09-16T08:56:17;9.70;;;1.42;;
45488;SDS011;31236;55.026;61.042;2022-09-16T08:58:50;7.37;;;1.60;;
45488;SDS011;31236;55.026;61.042;2022-09-16T09:04:13;6.87;;;1.72;;
45488;SDS011;31236;55.026;61.042;2022-09-16T09:49:28;12.98;;;3.10;;
45488;SDS011;31236;55.026;61.042;2022-09-16T10:01:09;12.70;;;2.95;;
45488;SDS011;31236;55.026;61.042;2022-09-16T10:03:41;21.17;;;3.70;;
45488;SDS011;31236;55.026;61.042;2022-09-16T10:06:12;11.78;;;3.12;;
45488;SDS011;31236;55.026;61.042;2022-09-16T10:11:33;29.30;;;9.33;;
45488;SDS011;31236;55.026;61.042;2022-09-16T10:14:18;40.83;;;15.08;;
45488;SDS011;31236;55.026;61.042;2022-09-16T10:16:50;90.55;;;48.38;;
45488;SDS011;31236;55.026;61.042;2022-09-16T10:25:28;39.50;;;17.40;;
45488;SDS011;31236;55.026;61.042;2022-09-16T10:27:53;61.80;;;28.05;;
45488;SDS011;31236;55.026;61.042;2022-09-16T10:33:28;38.63;;;12.13;;
45488;SDS011;31236;55.026;61.042;2022-09-16T10:36:19;40.17;;;15.80;;
45488;SDS011;31236;55.026;61.042;2022-09-16T10:38:52;32.55;;;10.78;;
45488;SDS011;31236;55.026;61.042;2022-09-16T10:41:25;12.95;;;3.55;;
45488;SDS011;31236;55.026;61.042;2022-09-16T10:47:15;12.58;;;1.60;;
45488;SDS011;31236;55.026;61.042;2022-09-16T10:49:59;14.75;;;2.42;;
45488;SDS011;31236;55.026;61.042;2022-09-16T10:58:15;11.50;;;2.05;;
45488;SDS011;31236;55.026;61.042;2022-09-16T11:07:25;8.03;;;1.00;;
45488;SDS011;31236;55.026;61.042;2022-09-16T11:15:59;13.95;;;7.20;;
45488;SDS011;31236;55.026;61.042;2022-09-16T11:18:49;30.45;;;13.83;;
45488;SDS011;31236;55.026;61.042;2022-09-16T11:24:49;12.55;;;3.60;;
45488;SDS011;31236;55.026;61.042;2022-09-16T11:27:23;8.28;;;2.70;;
45488;SDS011;31236;55.026;61.042;2022-09-16T11:57:40;6.95;;;1.90;;
45488;SDS011;31236;55.026;61.042;2022-09-16T12:00:13;8.25;;;2.10;;
45488;SDS011;31236;55.026;61.042;2022-09-16T12:08:50;7.50;;;2.02;;
45488;SDS011;31236;55.026;61.042;2022-09-16T12:14:33;11.97;;;1.70;;
45488;SDS011;31236;55.026;61.042;2022-09-16T12:17:05;8.30;;;1.60;;
45488;SDS011;31236;55.026;61.042;2022-09-16T12:40:29;8.53;;;2.25;;
45488;SDS011;31236;55.026;61.042;2022-09-16T12:51:57;12.23;;;4.00;;
45488;SDS011;31236;55.026;61.042;2022-09-16T12:54:50;22.82;;;7.30;;
45488;SDS011;31236;55.026;61.042;2022-09-16T13:03:19;21.87;;;5.58;;
45488;SDS011;31236;55.026;61.042;2022-09-16T13:05:51;25.82;;;5.80;;
45488;SDS011;31236;55.026;61.042;2022-09-16T13:11:51;34.65;;;9.58;;
45488;SDS011;31236;55.026;61.042;2022-09-16T13:13:47;25.10;;;6.83;;
45488;SDS011;31236;55.026;61.042;2022-09-16T13:22:21;22.90;;;6.42;;
45488;SDS011;31236;55.026;61.042;2022-09-16T13:28:03;14.38;;;4.50;;
45488;SDS011;31236;55.026;61.042;2022-09-16T13:30:53;22.85;;;6.53;;
45488;SDS011;31236;55.026;61.042;2022-09-16T13:33:25;22.75;;;7.37;;
45488;SDS011;31236;55.026;61.042;2022-09-16T13:39:08;17.60;;;5.35;;
45488;SDS011;31236;55.026;61.042;2022-09-16T13:41:56;13.70;;;4.67;;
45488;SDS011;31236;55.026;61.042;2022-09-16T13:47:28;21.17;;;5.87;;
45488;SDS011;31236;55.026;61.042;2022-09-16T13:53:07;22.55;;;5.97;;
45488;SDS011;31236;55.026;61.042;2022-09-16T13:55:52;22.55;;;5.50;;
45488;SDS011;31236;55.026;61.042;2022-09-16T14:01:56;21.70;;;7.50;;
45488;SDS011;31236;55.026;61.042;2022-09-16T14:16:28;16.12;;;4.80;;
45488;SDS011;31236;55.026;61.042;2022-09-16T14:25:22;12.88;;;3.08;;
45488;SDS011;31236;55.026;61.042;2022-09-16T14:27:36;16.27;;;4.35;;
45488;SDS011;31236;55.026;61.042;2022-09-16T14:32:59;26.60;;;11.22;;
45488;SDS011;31236;55.026;61.042;2022-09-16T14:35:30;22.80;;;9.38;;
45488;SDS011;31236;55.026;61.042;2022-09-16T14:38:02;20.87;;;7.87;;
45488;SDS011;31236;55.026;61.042;2022-09-16T14:40:33;14.10;;;3.77;;
45488;SDS011;31236;55.026;61.042;2022-09-16T14:43:07;56.83;;;21.68;;
45488;SDS011;31236;55.026;61.042;2022-09-16T14:45:42;27.22;;;10.45;;
45488;SDS011;31236;55.026;61.042;2022-09-16T14:48:13;52.05;;;35.28;;
45488;SDS011;31236;55.026;61.042;2022-09-16T14:50:45;178.60;;;110.88;;
45488;SDS011;31236;55.026;61.042;2022-09-16T14:56:40;63.15;;;35.85;;
45488;SDS011;31236;55.026;61.042;2022-09-16T14:58:59;29.25;;;14.00;;
45488;SDS011;31236;55.026;61.042;2022-09-16T15:01:29;26.45;;;6.78;;
45488;SDS011;31236;55.026;61.042;2022-09-16T15:06:51;17.65;;;5.87;;
45488;SDS011;31236;55.026;61.042;2022-09-16T15:09:25;19.48;;;6.08;;
45488;SDS011;31236;55.026;61.042;2022-09-16T15:11:57;21.10;;;6.12;;
45488;SDS011;31236;55.026;61.042;2022-09-16T15:14:29;17.10;;;4.55;;
45488;SDS011;31236;55.026;61.042;2022-09-16T15:17:00;16.65;;;3.33;;
45488;SDS011;31236;55.026;61.042;2022-09-16T15:20:04;16.53;;;3.77;;
45488;SDS011;31236;55.026;61.042;2022-09-16T15:22:23;20.47;;;6.97;;
45488;SDS011;31236;55.026;61.042;2022-09-16T15:24:55;14.58;;;4.58;;
45488;SDS011;31236;55.026;61.042;2022-09-16T15:27:27;20.08;;;6.55;;
45488;SDS011;31236;55.026;61.042;2022-09-16T15:29:58;16.55;;;8.05;;
45488;SDS011;31236;55.026;61.042;2022-09-16T15:32:30;19.82;;;7.80;;
45488;SDS011;31236;55.026;61.042;2022-09-16T15:37:54;20.62;;;4.42;;
45488;SDS011;31236;55.026;61.042;2022-09-16T15:49:00;22.93;;;7.33;;
45488;SDS011;31236;55.026;61.042;2022-09-16T16:00:05;19.90;;;7.95;;
45488;SDS011;31236;55.026;61.042;2022-09-16T16:02:56;13.30;;;4.03;;
45488;SDS011;31236;55.026;61.042;2022-09-16T16:05:30;19.30;;;7.33;;
45488;SDS011;31236;55.026;61.042;2022-09-16T16:08:02;18.57;;;3.60;;
45488;SDS011;31236;55.026;61.042;2022-09-16T16:10:33;26.07;;;7.60;;
45488;SDS011;31236;55.026;61.042;2022-09-16T16:13:05;10.90;;;2.35;;
45488;SDS011;31236;55.026;61.042;2022-09-16T16:15:36;7.95;;;1.80;;
45488;SDS011;31236;55.026;61.042;2022-09-16T16:18:07;18.27;;;5.30;;
45488;SDS011;31236;55.026;61.042;2022-09-16T16:20:38;12.13;;;2.35;;
45488;SDS011;31236;55.026;61.042;2022-09-16T16:23:08;12.23;;;1.87;;
45488;SDS011;31236;55.026;61.042;2022-09-16T16:25:39;13.03;;;5.10;;
45488;SDS011;31236;55.026;61.042;2022-09-16T16:28:10;11.90;;;4.33;;
45488;SDS011;31236;55.026;61.042;2022-09-16T16:30:40;10.43;;;2.50;;
45488;SDS011;31236;55.026;61.042;2022-09-16T16:33:11;12.10;;;2.22;;
45488;SDS011;31236;55.026;61.042;2022-09-16T16:35:41;8.85;;;2.10;;
45488;SDS011;31236;55.026;61.042;2022-09-16T16:38:11;4.28;;;1.70;;
45488;SDS011;31236;55.026;61.042;2022-09-16T16:40:48;8.75;;;1.60;;
45488;SDS011;31236;55.026;61.042;2022-09-16T16:43:33;7.78;;;2.10;;
45488;SDS011;31236;55.026;61.042;2022-09-16T16:46:03;9.53;;;2.08;;
45488;SDS011;31236;55.026;61.042;2022-09-16T16:48:33;7.92;;;1.90;;
45488;SDS011;31236;55.026;61.042;2022-09-16T16:51:05;8.88;;;1.60;;
45488;SDS011;31236;55.026;61.042;2022-09-16T16:53:37;9.38;;;1.42;;
45488;SDS011;31236;55.026;61.042;2022-09-16T16:58:40;7.47;;;2.02;;
45488;SDS011;31236;55.026;61.042;2022-09-16T17:01:12;18.37;;;2.12;;
45488;SDS011;31236;55.026;61.042;2022-09-16T17:03:43;6.62;;;1.50;;
45488;SDS011;31236;55.026;61.042;2022-09-16T17:06:33;6.92;;;2.33;;
45488;SDS011;31236;55.026;61.042;2022-09-16T17:09:03;15.10;;;2.85;;
45488;SDS011;31236;55.026;61.042;2022-09-16T17:11:35;8.05;;;2.02;;
45488;SDS011;31236;55.026;61.042;2022-09-16T17:14:07;11.57;;;2.30;;
45488;SDS011;31236;55.026;61.042;2022-09-16T17:16:38;7.35;;;2.62;;
45488;SDS011;31236;55.026;61.042;2022-09-16T17:19:08;11.12;;;2.02;;
45488;SDS011;31236;55.026;61.042;2022-09-16T17:21:39;9.05;;;1.80;;
45488;SDS011;31236;55.026;61.042;2022-09-16T17:24:09;6.30;;;1.60;;
45488;SDS011;31236;55.026;61.042;2022-09-16T17:26:40;6.55;;;1.30;;
45488;SDS011;31236;55.026;61.042;2022-09-16T17:29:11;8.23;;;1.30;;
45488;SDS011;31236;55.026;61.042;2022-09-16T17:31:41;6.45;;;2.20;;
45488;SDS011;31236;55.026;61.042;2022-09-16T17:34:12;6.28;;;1.80;;
45488;SDS011;31236;55.026;61.042;2022-09-16T17:36:43;8.35;;;1.70;;
45488;SDS011;31236;55.026;61.042;2022-09-16T17:42:07;9.13;;;1.75;;
45488;SDS011;31236;55.026;61.042;2022-09-16T17:44:37;7.60;;;1.52;;
45488;SDS011;31236;55.026;61.042;2022-09-16T17:47:07;8.93;;;1.42;;
45488;SDS011;31236;55.026;61.042;2022-09-16T17:49:38;4.85;;;1.67;;
45488;SDS011;31236;55.026;61.042;2022-09-16T17:52:08;9.28;;;1.47;;
45488;SDS011;31236;55.026;61.042;2022-09-16T17:54:38;6.97;;;1.82;;
45488;SDS011;31236;55.026;61.042;2022-09-16T17:57:09;9.63;;;2.10;;
45488;SDS011;31236;55.026;61.042;2022-09-16T17:59:39;5.42;;;1.50;;
45488;SDS011;31236;55.026;61.042;2022-09-16T18:02:10;8.40;;;1.87;;
45488;SDS011;31236;55.026;61.042;2022-09-16T18:04:41;5.42;;;1.30;;
45488;SDS011;31236;55.026;61.042;2022-09-16T18:07:12;6.80;;;1.72;;
45488;SDS011;31236;55.026;61.042;2022-09-16T18:09:42;8.88;;;2.40;;
45488;SDS011;31236;55.026;61.042;2022-09-16T18:12:13;6.50;;;2.02;;
45488;SDS011;31236;55.026;61.042;2022-09-16T18:14:43;7.62;;;1.98;;
45488;SDS011;31236;55.026;61.042;2022-09-16T18:17:14;7.05;;;1.67;;
45488;SDS011;31236;55.026;61.042;2022-09-16T18:19:44;10.25;;;1.90;;
45488;SDS011;31236;55.026;61.042;2022-09-16T18:22:15;10.53;;;1.90;;
45488;SDS011;31236;55.026;61.042;2022-09-16T18:24:45;6.15;;;1.40;;
45488;SDS011;31236;55.026;61.042;2022-09-16T18:27:15;8.35;;;1.75;;
45488;SDS011;31236;55.026;61.042;2022-09-16T18:29:46;5.78;;;1.07;;
45488;SDS011;31236;55.026;61.042;2022-09-16T18:32:17;3.67;;;1.32;;
45488;SDS011;31236;55.026;61.042;2022-09-16T18:34:47;4.65;;;1.27;;
45488;SDS011;31236;55.026;61.042;2022-09-16T18:37:18;7.60;;;2.70;;
45488;SDS011;31236;55.026;61.042;2022-09-16T18:39:49;5.40;;;1.20;;
45488;SDS011;31236;55.026;61.042;2022-09-16T18:44:50;8.60;;;1.30;;
45488;SDS011;31236;55.026;61.042;2022-09-16T18:47:21;5.22;;;1.22;;
45488;SDS011;31236;55.026;61.042;2022-09-16T18:49:53;6.28;;;1.45;;
45488;SDS011;31236;55.026;61.042;2022-09-16T18:52:23;6.53;;;1.60;;
45488;SDS011;31236;55.026;61.042;2022-09-16T18:54:54;6.50;;;1.40;;
45488;SDS011;31236;55.026;61.042;2022-09-16T18:57:24;9.78;;;1.55;;
45488;SDS011;31236;55.026;61.042;2022-09-16T18:59:54;5.50;;;1.20;;
45488;SDS011;31236;55.026;61.042;2022-09-16T19:02:26;13.85;;;2.05;;
45488;SDS011;31236;55.026;61.042;2022-09-16T19:04:57;10.88;;;1.52;;
45488;SDS011;31236;55.026;61.042;2022-09-16T19:07:27;5.85;;;1.75;;
45488;SDS011;31236;55.026;61.042;2022-09-16T19:09:58;10.55;;;2.25;;
45488;SDS011;31236;55.026;61.042;2022-09-16T19:12:28;9.00;;;1.45;;
45488;SDS011;31236;55.026;61.042;2022-09-16T19:14:58;9.70;;;1.75;;
45488;SDS011;31236;55.026;61.042;2022-09-16T19:17:30;7.15;;;1.50;;
45488;SDS011;31236;55.026;61.042;2022-09-16T19:20:01;6.37;;;1.45;;
45488;SDS011;31236;55.026;61.042;2022-09-16T19:22:32;11.78;;;2.30;;
45488;SDS011;31236;55.026;61.042;2022-09-16T19:25:03;9.40;;;1.47;;
45488;SDS011;31236;55.026;61.042;2022-09-16T19:27:33;12.33;;;1.90;;
45488;SDS011;31236;55.026;61.042;2022-09-16T19:30:04;9.40;;;1.80;;
45488;SDS011;31236;55.026;61.042;2022-09-16T19:32:35;9.15;;;1.62;;
45488;SDS011;31236;55.026;61.042;2022-09-16T19:35:06;5.47;;;1.45;;
45488;SDS011;31236;55.026;61.042;2022-09-16T19:37:36;4.65;;;1.60;;
45488;SDS011;31236;55.026;61.042;2022-09-16T19:40:08;8.23;;;1.40;;
45488;SDS011;31236;55.026;61.042;2022-09-16T19:42:39;9.30;;;1.77;;
45488;SDS011;31236;55.026;61.042;2022-09-16T19:45:09;10.15;;;1.82;;
45488;SDS011;31236;55.026;61.042;2022-09-16T19:47:40;6.75;;;1.77;;
45488;SDS011;31236;55.026;61.042;2022-09-16T19:50:13;16.90;;;2.27;;
45488;SDS011;31236;55.026;61.042;2022-09-16T19:52:43;8.53;;;1.50;;
45488;SDS011;31236;55.026;61.042;2022-09-16T19:55:14;10.63;;;1.90;;
45488;SDS011;31236;55.026;61.042;2022-09-16T19:57:44;8.50;;;1.62;;
45488;SDS011;31236;55.026;61.042;2022-09-16T20:00:15;7.90;;;1.72;;
45488;SDS011;31236;55.026;61.042;2022-09-16T20:02:45;13.03;;;2.27;;
45488;SDS011;31236;55.026;61.042;2022-09-16T20:05:16;13.03;;;2.10;;
45488;SDS011;31236;55.026;61.042;2022-09-16T20:07:49;8.55;;;1.85;;
45488;SDS011;31236;55.026;61.042;2022-09-16T20:10:19;8.85;;;2.17;;
45488;SDS011;31236;55.026;61.042;2022-09-16T20:12:50;8.65;;;1.42;;
45488;SDS011;31236;55.026;61.042;2022-09-16T20:17:52;10.35;;;2.00;;
45488;SDS011;31236;55.026;61.042;2022-09-16T20:20:22;8.88;;;1.37;;
45488;SDS011;31236;55.026;61.042;2022-09-16T20:22:53;6.03;;;1.72;;
45488;SDS011;31236;55.026;61.042;2022-09-16T20:25:23;9.35;;;1.57;;
45488;SDS011;31236;55.026;61.042;2022-09-16T20:27:54;6.90;;;1.42;;
45488;SDS011;31236;55.026;61.042;2022-09-16T20:30:24;7.87;;;1.40;;
45488;SDS011;31236;55.026;61.042;2022-09-16T20:32:55;9.93;;;1.60;;
45488;SDS011;31236;55.026;61.042;2022-09-16T20:35:26;7.70;;;1.60;;
45488;SDS011;31236;55.026;61.042;2022-09-16T20:37:56;8.55;;;1.72;;
45488;SDS011;31236;55.026;61.042;2022-09-16T20:40:27;6.53;;;1.50;;
45488;SDS011;31236;55.026;61.042;2022-09-16T20:42:58;10.25;;;1.55;;
45488;SDS011;31236;55.026;61.042;2022-09-16T20:45:28;8.40;;;1.50;;
45488;SDS011;31236;55.026;61.042;2022-09-16T20:47:59;13.60;;;2.12;;
45488;SDS011;31236;55.026;61.042;2022-09-16T20:50:30;11.25;;;1.55;;
45488;SDS011;31236;55.026;61.042;2022-09-16T20:53:02;11.50;;;1.32;;
45488;SDS011;31236;55.026;61.042;2022-09-16T20:55:32;6.70;;;1.40;;
45488;SDS011;31236;55.026;61.042;2022-09-16T20:58:03;5.22;;;1.25;;
45488;SDS011;31236;55.026;61.042;2022-09-16T21:00:33;8.75;;;1.57;;
45488;SDS011;31236;55.026;61.042;2022-09-16T21:03:04;8.15;;;1.20;;